sensor_id;sensor_type;location;lat;lon;timestamp;P1;durP1;ratioP1;P2;durP2;ratioP2
80163;SDS011;70071;55.130;61.268;2024-03-23T00:56:20;5.40;;;2.25;;
80163;SDS011;70071;55.130;61.268;2024-03-23T00:58:46;3.10;;;1.38;;
80163;SDS011;70071;55.130;61.268;2024-03-23T01:01:12;4.50;;;1.73;;
80163;SDS011;70071;55.130;61.268;2024-03-23T01:03:38;6.18;;;2.10;;
80163;SDS011;70071;55.130;61.268;2024-03-23T01:06:03;3.13;;;1.70;;
80163;SDS011;70071;55.130;61.268;2024-03-23T01:08:29;4.45;;;1.70;;
80163;SDS011;70071;55.130;61.268;2024-03-23T01:10:56;5.53;;;2.10;;
80163;SDS011;70071;55.130;61.268;2024-03-23T01:13:24;3.22;;;1.70;;
80163;SDS011;70071;55.130;61.268;2024-03-23T01:15:50;2.95;;;1.90;;
80163;SDS011;70071;55.130;61.268;2024-03-23T01:18:20;3.60;;;2.00;;
80163;SDS011;70071;55.130;61.268;2024-03-23T01:20:47;4.43;;;2.00;;
80163;SDS011;70071;55.130;61.268;2024-03-23T01:23:13;7.32;;;2.22;;
80163;SDS011;70071;55.130;61.268;2024-03-23T01:25:39;4.15;;;1.83;;
80163;SDS011;70071;55.130;61.268;2024-03-23T01:28:06;5.43;;;2.45;;
80163;SDS011;70071;55.130;61.268;2024-03-23T01:30:35;5.28;;;1.70;;
80163;SDS011;70071;55.130;61.268;2024-03-23T01:33:03;6.18;;;2.35;;
80163;SDS011;70071;55.130;61.268;2024-03-23T01:35:29;3.70;;;1.58;;
80163;SDS011;70071;55.130;61.268;2024-03-23T01:37:55;4.18;;;2.30;;
80163;SDS011;70071;55.130;61.268;2024-03-23T01:40:21;6.30;;;2.05;;
80163;SDS011;70071;55.130;61.268;2024-03-23T01:42:56;5.53;;;2.35;;
80163;SDS011;70071;55.130;61.268;2024-03-23T01:45:23;4.65;;;2.38;;
80163;SDS011;70071;55.130;61.268;2024-03-23T01:47:50;4.47;;;2.60;;
80163;SDS011;70071;55.130;61.268;2024-03-23T01:50:18;6.97;;;2.15;;
80163;SDS011;70071;55.130;61.268;2024-03-23T01:52:46;2.47;;;1.30;;
80163;SDS011;70071;55.130;61.268;2024-03-23T01:55:13;9.32;;;3.03;;
80163;SDS011;70071;55.130;61.268;2024-03-23T01:57:39;6.25;;;2.30;;
80163;SDS011;70071;55.130;61.268;2024-03-23T02:00:05;6.07;;;2.50;;
80163;SDS011;70071;55.130;61.268;2024-03-23T02:02:32;5.60;;;2.75;;
80163;SDS011;70071;55.130;61.268;2024-03-23T02:04:58;6.00;;;2.53;;
80163;SDS011;70071;55.130;61.268;2024-03-23T02:07:24;7.63;;;2.53;;
80163;SDS011;70071;55.130;61.268;2024-03-23T02:09:52;8.85;;;2.90;;
80163;SDS011;70071;55.130;61.268;2024-03-23T02:12:19;4.60;;;3.22;;
80163;SDS011;70071;55.130;61.268;2024-03-23T02:14:47;6.60;;;2.70;;
80163;SDS011;70071;55.130;61.268;2024-03-23T02:17:13;4.05;;;2.38;;
80163;SDS011;70071;55.130;61.268;2024-03-23T02:19:39;5.72;;;2.90;;
80163;SDS011;70071;55.130;61.268;2024-03-23T02:22:05;7.28;;;2.38;;
80163;SDS011;70071;55.130;61.268;2024-03-23T02:24:31;3.95;;;2.10;;
80163;SDS011;70071;55.130;61.268;2024-03-23T02:26:57;7.53;;;3.03;;
80163;SDS011;70071;55.130;61.268;2024-03-23T02:29:23;8.05;;;2.50;;
80163;SDS011;70071;55.130;61.268;2024-03-23T02:31:49;4.90;;;2.53;;
80163;SDS011;70071;55.130;61.268;2024-03-23T02:34:15;6.05;;;2.20;;
80163;SDS011;70071;55.130;61.268;2024-03-23T02:36:41;4.78;;;2.35;;
80163;SDS011;70071;55.130;61.268;2024-03-23T02:39:07;6.10;;;2.30;;
80163;SDS011;70071;55.130;61.268;2024-03-23T02:41:33;6.35;;;2.80;;
80163;SDS011;70071;55.130;61.268;2024-03-23T02:43:59;4.80;;;2.30;;
80163;SDS011;70071;55.130;61.268;2024-03-23T02:46:25;6.13;;;2.00;;
80163;SDS011;70071;55.130;61.268;2024-03-23T02:48:51;4.18;;;2.55;;
80163;SDS011;70071;55.130;61.268;2024-03-23T02:51:17;3.88;;;2.10;;
80163;SDS011;70071;55.130;61.268;2024-03-23T02:53:43;6.78;;;2.85;;
80163;SDS011;70071;55.130;61.268;2024-03-23T02:56:09;4.47;;;2.40;;
80163;SDS011;70071;55.130;61.268;2024-03-23T02:58:41;5.13;;;2.65;;
80163;SDS011;70071;55.130;61.268;2024-03-23T03:01:08;6.35;;;2.78;;
80163;SDS011;70071;55.130;61.268;2024-03-23T03:03:34;4.88;;;2.45;;
80163;SDS011;70071;55.130;61.268;2024-03-23T03:06:00;11.10;;;2.88;;
80163;SDS011;70071;55.130;61.268;2024-03-23T03:08:26;8.73;;;3.00;;
80163;SDS011;70071;55.130;61.268;2024-03-23T03:10:51;8.68;;;3.50;;
80163;SDS011;70071;55.130;61.268;2024-03-23T03:13:17;6.60;;;3.13;;
80163;SDS011;70071;55.130;61.268;2024-03-23T03:15:46;6.88;;;3.25;;
80163;SDS011;70071;55.130;61.268;2024-03-23T03:18:15;4.97;;;2.90;;
80163;SDS011;70071;55.130;61.268;2024-03-23T03:20:41;7.28;;;2.90;;
80163;SDS011;70071;55.130;61.268;2024-03-23T03:23:07;7.82;;;3.60;;
80163;SDS011;70071;55.130;61.268;2024-03-23T03:25:33;5.13;;;3.00;;
80163;SDS011;70071;55.130;61.268;2024-03-23T03:27:59;12.90;;;4.35;;
80163;SDS011;70071;55.130;61.268;2024-03-23T03:30:27;9.15;;;3.58;;
80163;SDS011;70071;55.130;61.268;2024-03-23T03:32:53;6.57;;;3.28;;
80163;SDS011;70071;55.130;61.268;2024-03-23T03:35:19;5.78;;;3.33;;
80163;SDS011;70071;55.130;61.268;2024-03-23T03:37:45;8.98;;;3.72;;
80163;SDS011;70071;55.130;61.268;2024-03-23T03:40:12;7.88;;;3.17;;
80163;SDS011;70071;55.130;61.268;2024-03-23T03:42:41;5.90;;;3.78;;
80163;SDS011;70071;55.130;61.268;2024-03-23T03:45:07;4.57;;;2.00;;
80163;SDS011;70071;55.130;61.268;2024-03-23T03:47:33;6.40;;;2.67;;
80163;SDS011;70071;55.130;61.268;2024-03-23T03:49:59;2.55;;;1.35;;
80163;SDS011;70071;55.130;61.268;2024-03-23T03:52:25;4.97;;;2.42;;
80163;SDS011;70071;55.130;61.268;2024-03-23T03:54:55;4.63;;;3.22;;
80163;SDS011;70071;55.130;61.268;2024-03-23T03:57:27;6.53;;;3.33;;
80163;SDS011;70071;55.130;61.268;2024-03-23T03:59:53;5.78;;;3.40;;
80163;SDS011;70071;55.130;61.268;2024-03-23T04:02:22;5.20;;;2.65;;
80163;SDS011;70071;55.130;61.268;2024-03-23T04:04:48;7.55;;;3.95;;
80163;SDS011;70071;55.130;61.268;2024-03-23T04:07:14;7.00;;;4.07;;
80163;SDS011;70071;55.130;61.268;2024-03-23T04:09:40;4.63;;;2.15;;
80163;SDS011;70071;55.130;61.268;2024-03-23T04:12:06;7.10;;;3.30;;
80163;SDS011;70071;55.130;61.268;2024-03-23T04:14:32;5.93;;;2.97;;
80163;SDS011;70071;55.130;61.268;2024-03-23T04:16:58;8.07;;;4.10;;
80163;SDS011;70071;55.130;61.268;2024-03-23T04:19:26;5.22;;;3.20;;
80163;SDS011;70071;55.130;61.268;2024-03-23T04:21:53;6.72;;;3.08;;
80163;SDS011;70071;55.130;61.268;2024-03-23T04:24:19;1.83;;;1.15;;
80163;SDS011;70071;55.130;61.268;2024-03-23T04:26:49;7.97;;;3.50;;
80163;SDS011;70071;55.130;61.268;2024-03-23T04:29:15;8.23;;;4.10;;
80163;SDS011;70071;55.130;61.268;2024-03-23T04:31:41;6.43;;;2.65;;
80163;SDS011;70071;55.130;61.268;2024-03-23T04:34:07;7.25;;;3.75;;
80163;SDS011;70071;55.130;61.268;2024-03-23T04:36:33;5.68;;;3.58;;
80163;SDS011;70071;55.130;61.268;2024-03-23T04:38:59;5.05;;;1.90;;
80163;SDS011;70071;55.130;61.268;2024-03-23T04:41:26;9.82;;;4.65;;
80163;SDS011;70071;55.130;61.268;2024-03-23T04:43:52;6.68;;;3.70;;
80163;SDS011;70071;55.130;61.268;2024-03-23T04:46:18;7.10;;;3.58;;
80163;SDS011;70071;55.130;61.268;2024-03-23T04:48:45;9.43;;;4.55;;
80163;SDS011;70071;55.130;61.268;2024-03-23T04:51:20;11.93;;;4.57;;
80163;SDS011;70071;55.130;61.268;2024-03-23T04:53:49;6.47;;;4.28;;
80163;SDS011;70071;55.130;61.268;2024-03-23T04:56:15;6.93;;;4.43;;
80163;SDS011;70071;55.130;61.268;2024-03-23T04:58:45;8.63;;;3.85;;
80163;SDS011;70071;55.130;61.268;2024-03-23T05:01:11;6.65;;;3.65;;
80163;SDS011;70071;55.130;61.268;2024-03-23T05:03:38;7.68;;;3.75;;
80163;SDS011;70071;55.130;61.268;2024-03-23T05:10:56;6.63;;;3.20;;
80163;SDS011;70071;55.130;61.268;2024-03-23T05:13:23;7.45;;;3.83;;
80163;SDS011;70071;55.130;61.268;2024-03-23T05:15:52;6.43;;;3.42;;
80163;SDS011;70071;55.130;61.268;2024-03-23T05:18:21;5.53;;;2.28;;
80163;SDS011;70071;55.130;61.268;2024-03-23T05:20:47;8.85;;;3.38;;
80163;SDS011;70071;55.130;61.268;2024-03-23T05:23:13;7.55;;;3.88;;
80163;SDS011;70071;55.130;61.268;2024-03-23T05:25:40;5.72;;;3.83;;
80163;SDS011;70071;55.130;61.268;2024-03-23T05:28:06;7.78;;;3.58;;
80163;SDS011;70071;55.130;61.268;2024-03-23T05:30:32;7.28;;;3.60;;
80163;SDS011;70071;55.130;61.268;2024-03-23T05:32:58;8.20;;;3.28;;
80163;SDS011;70071;55.130;61.268;2024-03-23T05:35:24;8.65;;;2.80;;
80163;SDS011;70071;55.130;61.268;2024-03-23T05:37:50;6.70;;;3.17;;
80163;SDS011;70071;55.130;61.268;2024-03-23T05:40:16;4.30;;;2.78;;
80163;SDS011;70071;55.130;61.268;2024-03-23T05:42:44;8.85;;;3.53;;
80163;SDS011;70071;55.130;61.268;2024-03-23T05:45:10;4.97;;;3.08;;
80163;SDS011;70071;55.130;61.268;2024-03-23T05:47:36;9.10;;;3.15;;
80163;SDS011;70071;55.130;61.268;2024-03-23T05:50:03;1.85;;;1.48;;
80163;SDS011;70071;55.130;61.268;2024-03-23T05:52:30;5.82;;;2.83;;
80163;SDS011;70071;55.130;61.268;2024-03-23T05:54:56;4.55;;;2.55;;
80163;SDS011;70071;55.130;61.268;2024-03-23T05:59:49;6.13;;;2.53;;
80163;SDS011;70071;55.130;61.268;2024-03-23T06:02:15;4.07;;;2.50;;
80163;SDS011;70071;55.130;61.268;2024-03-23T06:04:41;5.13;;;2.75;;
80163;SDS011;70071;55.130;61.268;2024-03-23T06:07:08;4.28;;;2.20;;
80163;SDS011;70071;55.130;61.268;2024-03-23T06:09:39;4.20;;;1.92;;
80163;SDS011;70071;55.130;61.268;2024-03-23T06:12:06;2.88;;;1.90;;
80163;SDS011;70071;55.130;61.268;2024-03-23T06:14:32;2.65;;;1.50;;
80163;SDS011;70071;55.130;61.268;2024-03-23T06:16:58;5.18;;;2.33;;
80163;SDS011;70071;55.130;61.268;2024-03-23T06:19:25;7.22;;;2.53;;
80163;SDS011;70071;55.130;61.268;2024-03-23T06:21:55;3.97;;;2.13;;
80163;SDS011;70071;55.130;61.268;2024-03-23T06:24:30;4.18;;;2.45;;
80163;SDS011;70071;55.130;61.268;2024-03-23T06:26:56;4.82;;;2.40;;
80163;SDS011;70071;55.130;61.268;2024-03-23T06:29:22;6.70;;;2.40;;
80163;SDS011;70071;55.130;61.268;2024-03-23T06:31:53;4.45;;;1.90;;
80163;SDS011;70071;55.130;61.268;2024-03-23T06:34:20;4.88;;;2.00;;
80163;SDS011;70071;55.130;61.268;2024-03-23T06:36:51;4.10;;;2.58;;
80163;SDS011;70071;55.130;61.268;2024-03-23T06:39:18;3.70;;;2.10;;
80163;SDS011;70071;55.130;61.268;2024-03-23T06:41:54;5.20;;;2.80;;
80163;SDS011;70071;55.130;61.268;2024-03-23T06:44:21;6.68;;;2.25;;
80163;SDS011;70071;55.130;61.268;2024-03-23T06:46:47;5.10;;;1.88;;
80163;SDS011;70071;55.130;61.268;2024-03-23T06:49:15;5.68;;;2.10;;
80163;SDS011;70071;55.130;61.268;2024-03-23T06:51:41;3.25;;;2.10;;
80163;SDS011;70071;55.130;61.268;2024-03-23T06:54:07;3.08;;;1.95;;
80163;SDS011;70071;55.130;61.268;2024-03-23T06:56:33;3.85;;;1.98;;
80163;SDS011;70071;55.130;61.268;2024-03-23T06:58:59;4.43;;;1.75;;
80163;SDS011;70071;55.130;61.268;2024-03-23T07:01:25;4.75;;;2.00;;
80163;SDS011;70071;55.130;61.268;2024-03-23T07:03:51;5.05;;;1.48;;
80163;SDS011;70071;55.130;61.268;2024-03-23T07:06:17;3.47;;;2.08;;
80163;SDS011;70071;55.130;61.268;2024-03-23T07:08:43;4.63;;;1.80;;
80163;SDS011;70071;55.130;61.268;2024-03-23T07:11:09;3.63;;;1.67;;
80163;SDS011;70071;55.130;61.268;2024-03-23T07:13:35;3.90;;;1.00;;
80163;SDS011;70071;55.130;61.268;2024-03-23T07:16:01;3.13;;;1.48;;
80163;SDS011;70071;55.130;61.268;2024-03-23T07:18:27;3.97;;;1.50;;
80163;SDS011;70071;55.130;61.268;2024-03-23T07:20:54;4.53;;;2.05;;
80163;SDS011;70071;55.130;61.268;2024-03-23T07:23:24;2.38;;;1.05;;
80163;SDS011;70071;55.130;61.268;2024-03-23T07:28:26;3.17;;;1.58;;
80163;SDS011;70071;55.130;61.268;2024-03-23T07:31:12;2.30;;;1.50;;
80163;SDS011;70071;55.130;61.268;2024-03-23T07:33:44;3.42;;;1.42;;
80163;SDS011;70071;55.130;61.268;2024-03-23T07:36:11;3.95;;;1.90;;
80163;SDS011;70071;55.130;61.268;2024-03-23T07:38:37;3.70;;;1.38;;
80163;SDS011;70071;55.130;61.268;2024-03-23T07:41:06;4.20;;;1.48;;
80163;SDS011;70071;55.130;61.268;2024-03-23T07:43:34;2.67;;;1.33;;
80163;SDS011;70071;55.130;61.268;2024-03-23T07:48:27;3.15;;;1.80;;
80163;SDS011;70071;55.130;61.268;2024-03-23T07:53:35;3.67;;;1.45;;
80163;SDS011;70071;55.130;61.268;2024-03-23T07:56:05;2.67;;;1.55;;
80163;SDS011;70071;55.130;61.268;2024-03-23T07:58:32;3.85;;;1.65;;
80163;SDS011;70071;55.130;61.268;2024-03-23T08:01:09;6.20;;;1.70;;
80163;SDS011;70071;55.130;61.268;2024-03-23T08:03:37;4.40;;;1.38;;
80163;SDS011;70071;55.130;61.268;2024-03-23T08:06:10;3.35;;;1.10;;
80163;SDS011;70071;55.130;61.268;2024-03-23T08:08:40;3.55;;;2.00;;
80163;SDS011;70071;55.130;61.268;2024-03-23T08:11:08;3.70;;;1.20;;
80163;SDS011;70071;55.130;61.268;2024-03-23T08:13:35;2.78;;;1.30;;
80163;SDS011;70071;55.130;61.268;2024-03-23T08:16:02;4.30;;;1.58;;
80163;SDS011;70071;55.130;61.268;2024-03-23T08:18:29;3.85;;;1.67;;
80163;SDS011;70071;55.130;61.268;2024-03-23T08:20:57;3.92;;;2.35;;
80163;SDS011;70071;55.130;61.268;2024-03-23T08:23:27;3.08;;;1.30;;
80163;SDS011;70071;55.130;61.268;2024-03-23T08:25:57;4.18;;;1.00;;
80163;SDS011;70071;55.130;61.268;2024-03-23T08:28:24;2.83;;;1.33;;
80163;SDS011;70071;55.130;61.268;2024-03-23T08:30:52;1.80;;;1.20;;
80163;SDS011;70071;55.130;61.268;2024-03-23T08:33:18;2.70;;;1.10;;
80163;SDS011;70071;55.130;61.268;2024-03-23T08:35:57;3.65;;;1.50;;
80163;SDS011;70071;55.130;61.268;2024-03-23T08:38:24;3.20;;;1.20;;
80163;SDS011;70071;55.130;61.268;2024-03-23T08:40:58;1.58;;;1.05;;
80163;SDS011;70071;55.130;61.268;2024-03-23T08:43:24;3.00;;;1.20;;
80163;SDS011;70071;55.130;61.268;2024-03-23T08:45:51;1.98;;;1.02;;
80163;SDS011;70071;55.130;61.268;2024-03-23T08:48:19;2.47;;;1.08;;
80163;SDS011;70071;55.130;61.268;2024-03-23T08:50:58;4.43;;;0.95;;
80163;SDS011;70071;55.130;61.268;2024-03-23T08:53:37;3.38;;;1.33;;
80163;SDS011;70071;55.130;61.268;2024-03-23T08:56:04;2.60;;;0.93;;
80163;SDS011;70071;55.130;61.268;2024-03-23T08:58:35;1.98;;;1.00;;
80163;SDS011;70071;55.130;61.268;2024-03-23T09:06:01;2.75;;;1.10;;
80163;SDS011;70071;55.130;61.268;2024-03-23T09:08:31;2.33;;;1.63;;
80163;SDS011;70071;55.130;61.268;2024-03-23T09:10:57;3.97;;;1.23;;
80163;SDS011;70071;55.130;61.268;2024-03-23T09:13:28;3.38;;;1.10;;
80163;SDS011;70071;55.130;61.268;2024-03-23T09:15:54;2.25;;;1.10;;
80163;SDS011;70071;55.130;61.268;2024-03-23T09:18:22;1.70;;;0.95;;
80163;SDS011;70071;55.130;61.268;2024-03-23T09:20:49;2.72;;;1.35;;
80163;SDS011;70071;55.130;61.268;2024-03-23T09:23:15;1.52;;;1.00;;
80163;SDS011;70071;55.130;61.268;2024-03-23T09:25:48;3.40;;;1.30;;
80163;SDS011;70071;55.130;61.268;2024-03-23T09:28:14;3.55;;;1.20;;
80163;SDS011;70071;55.130;61.268;2024-03-23T09:30:40;3.83;;;1.38;;
80163;SDS011;70071;55.130;61.268;2024-03-23T09:33:10;3.28;;;1.20;;
80163;SDS011;70071;55.130;61.268;2024-03-23T09:35:38;2.22;;;1.25;;
80163;SDS011;70071;55.130;61.268;2024-03-23T09:38:04;2.83;;;1.20;;
80163;SDS011;70071;55.130;61.268;2024-03-23T09:40:33;4.30;;;1.58;;
80163;SDS011;70071;55.130;61.268;2024-03-23T09:43:02;2.50;;;1.10;;
80163;SDS011;70071;55.130;61.268;2024-03-23T09:45:36;1.85;;;0.70;;
80163;SDS011;70071;55.130;61.268;2024-03-23T09:48:09;3.30;;;1.35;;
80163;SDS011;70071;55.130;61.268;2024-03-23T09:51:01;1.77;;;1.00;;
80163;SDS011;70071;55.130;61.268;2024-03-23T09:53:49;5.93;;;1.33;;
80163;SDS011;70071;55.130;61.268;2024-03-23T09:56:19;5.10;;;1.67;;
80163;SDS011;70071;55.130;61.268;2024-03-23T09:58:47;3.85;;;1.48;;
80163;SDS011;70071;55.130;61.268;2024-03-23T10:01:13;3.85;;;1.15;;
80163;SDS011;70071;55.130;61.268;2024-03-23T10:03:43;2.88;;;1.10;;
80163;SDS011;70071;55.130;61.268;2024-03-23T10:06:12;2.60;;;1.20;;
80163;SDS011;70071;55.130;61.268;2024-03-23T10:08:39;3.35;;;1.67;;
80163;SDS011;70071;55.130;61.268;2024-03-23T10:11:15;1.95;;;1.17;;
80163;SDS011;70071;55.130;61.268;2024-03-23T10:13:42;3.33;;;1.60;;
80163;SDS011;70071;55.130;61.268;2024-03-23T10:16:09;2.63;;;0.93;;
80163;SDS011;70071;55.130;61.268;2024-03-23T10:18:37;3.30;;;1.58;;
80163;SDS011;70071;55.130;61.268;2024-03-23T10:21:08;3.28;;;1.02;;
80163;SDS011;70071;55.130;61.268;2024-03-23T10:23:38;4.15;;;1.45;;
80163;SDS011;70071;55.130;61.268;2024-03-23T10:26:24;1.88;;;1.65;;
80163;SDS011;70071;55.130;61.268;2024-03-23T10:31:28;4.32;;;1.75;;
80163;SDS011;70071;55.130;61.268;2024-03-23T10:33:55;2.75;;;1.55;;
80163;SDS011;70071;55.130;61.268;2024-03-23T10:38:49;4.40;;;1.40;;
80163;SDS011;70071;55.130;61.268;2024-03-23T10:41:17;4.80;;;1.40;;
80163;SDS011;70071;55.130;61.268;2024-03-23T10:43:47;3.63;;;1.52;;
80163;SDS011;70071;55.130;61.268;2024-03-23T10:46:15;2.78;;;1.63;;
80163;SDS011;70071;55.130;61.268;2024-03-23T10:48:41;1.67;;;0.82;;
80163;SDS011;70071;55.130;61.268;2024-03-23T10:51:08;2.15;;;1.05;;
80163;SDS011;70071;55.130;61.268;2024-03-23T10:53:35;4.25;;;1.00;;
80163;SDS011;70071;55.130;61.268;2024-03-23T10:56:04;2.63;;;1.27;;
80163;SDS011;70071;55.130;61.268;2024-03-23T10:58:31;2.92;;;1.25;;
80163;SDS011;70071;55.130;61.268;2024-03-23T11:01:03;3.45;;;1.10;;
80163;SDS011;70071;55.130;61.268;2024-03-23T11:03:33;2.15;;;0.93;;
80163;SDS011;70071;55.130;61.268;2024-03-23T11:06:05;2.97;;;1.10;;
80163;SDS011;70071;55.130;61.268;2024-03-23T11:08:37;3.80;;;1.48;;
80163;SDS011;70071;55.130;61.268;2024-03-23T11:11:14;5.10;;;1.77;;
80163;SDS011;70071;55.130;61.268;2024-03-23T11:13:44;3.15;;;1.17;;
80163;SDS011;70071;55.130;61.268;2024-03-23T11:22:02;3.17;;;1.15;;
80163;SDS011;70071;55.130;61.268;2024-03-23T11:24:31;2.13;;;1.13;;
80163;SDS011;70071;55.130;61.268;2024-03-23T11:26:57;6.47;;;1.60;;
80163;SDS011;70071;55.130;61.268;2024-03-23T11:29:30;2.45;;;1.13;;
80163;SDS011;70071;55.130;61.268;2024-03-23T11:31:56;4.28;;;1.85;;
80163;SDS011;70071;55.130;61.268;2024-03-23T11:34:23;6.13;;;1.40;;
80163;SDS011;70071;55.130;61.268;2024-03-23T11:36:49;2.47;;;1.50;;
80163;SDS011;70071;55.130;61.268;2024-03-23T11:39:16;3.88;;;1.70;;
80163;SDS011;70071;55.130;61.268;2024-03-23T11:41:50;4.00;;;1.55;;
80163;SDS011;70071;55.130;61.268;2024-03-23T11:44:18;2.95;;;1.55;;
80163;SDS011;70071;55.130;61.268;2024-03-23T11:46:48;3.30;;;1.73;;
80163;SDS011;70071;55.130;61.268;2024-03-23T11:49:21;3.08;;;1.33;;
80163;SDS011;70071;55.130;61.268;2024-03-23T11:51:48;3.28;;;1.52;;
80163;SDS011;70071;55.130;61.268;2024-03-23T11:54:15;2.45;;;1.33;;
80163;SDS011;70071;55.130;61.268;2024-03-23T11:56:53;3.60;;;1.60;;
80163;SDS011;70071;55.130;61.268;2024-03-23T12:02:09;2.95;;;1.30;;
80163;SDS011;70071;55.130;61.268;2024-03-23T12:04:37;2.28;;;1.10;;
80163;SDS011;70071;55.130;61.268;2024-03-23T12:07:11;3.45;;;1.20;;
80163;SDS011;70071;55.130;61.268;2024-03-23T12:09:44;4.90;;;1.30;;
80163;SDS011;70071;55.130;61.268;2024-03-23T12:12:17;2.03;;;1.38;;
80163;SDS011;70071;55.130;61.268;2024-03-23T12:14:44;5.82;;;1.75;;
80163;SDS011;70071;55.130;61.268;2024-03-23T12:17:14;1.90;;;1.35;;
80163;SDS011;70071;55.130;61.268;2024-03-23T12:19:41;2.00;;;1.00;;
80163;SDS011;70071;55.130;61.268;2024-03-23T12:22:08;5.70;;;1.58;;
80163;SDS011;70071;55.130;61.268;2024-03-23T12:24:40;3.92;;;1.50;;
80163;SDS011;70071;55.130;61.268;2024-03-23T12:27:10;3.25;;;1.30;;
80163;SDS011;70071;55.130;61.268;2024-03-23T12:29:37;4.05;;;1.60;;
80163;SDS011;70071;55.130;61.268;2024-03-23T12:32:04;3.67;;;1.23;;
80163;SDS011;70071;55.130;61.268;2024-03-23T12:34:34;7.15;;;1.80;;
80163;SDS011;70071;55.130;61.268;2024-03-23T12:37:00;2.67;;;1.42;;
80163;SDS011;70071;55.130;61.268;2024-03-23T12:39:26;4.03;;;1.30;;
80163;SDS011;70071;55.130;61.268;2024-03-23T12:41:52;2.60;;;1.65;;
80163;SDS011;70071;55.130;61.268;2024-03-23T12:44:19;3.15;;;1.70;;
80163;SDS011;70071;55.130;61.268;2024-03-23T12:49:10;3.60;;;1.70;;
80163;SDS011;70071;55.130;61.268;2024-03-23T12:51:37;2.72;;;1.42;;
80163;SDS011;70071;55.130;61.268;2024-03-23T12:54:03;2.78;;;1.50;;
80163;SDS011;70071;55.130;61.268;2024-03-23T12:56:29;3.75;;;1.80;;
80163;SDS011;70071;55.130;61.268;2024-03-23T12:58:56;5.50;;;1.70;;
80163;SDS011;70071;55.130;61.268;2024-03-23T13:01:32;5.65;;;2.17;;
80163;SDS011;70071;55.130;61.268;2024-03-23T13:03:58;3.83;;;1.70;;
80163;SDS011;70071;55.130;61.268;2024-03-23T13:06:26;2.30;;;1.63;;
80163;SDS011;70071;55.130;61.268;2024-03-23T13:08:52;4.10;;;1.50;;
80163;SDS011;70071;55.130;61.268;2024-03-23T13:11:20;3.58;;;2.17;;
80163;SDS011;70071;55.130;61.268;2024-03-23T13:13:46;3.85;;;1.50;;
80163;SDS011;70071;55.130;61.268;2024-03-23T13:16:12;5.18;;;2.03;;
80163;SDS011;70071;55.130;61.268;2024-03-23T13:18:38;6.35;;;1.83;;
80163;SDS011;70071;55.130;61.268;2024-03-23T13:21:07;4.03;;;2.30;;
80163;SDS011;70071;55.130;61.268;2024-03-23T13:23:33;4.75;;;1.83;;
80163;SDS011;70071;55.130;61.268;2024-03-23T13:26:01;4.10;;;1.98;;
80163;SDS011;70071;55.130;61.268;2024-03-23T13:28:28;3.28;;;2.40;;
80163;SDS011;70071;55.130;61.268;2024-03-23T13:30:54;3.13;;;2.03;;
80163;SDS011;70071;55.130;61.268;2024-03-23T13:33:21;3.45;;;2.10;;
80163;SDS011;70071;55.130;61.268;2024-03-23T13:38:16;3.50;;;1.98;;
80163;SDS011;70071;55.130;61.268;2024-03-23T13:40:58;4.28;;;2.53;;
80163;SDS011;70071;55.130;61.268;2024-03-23T13:43:26;3.63;;;2.20;;
80163;SDS011;70071;55.130;61.268;2024-03-23T13:45:57;3.55;;;1.80;;
80163;SDS011;70071;55.130;61.268;2024-03-23T13:48:25;4.25;;;1.92;;
80163;SDS011;70071;55.130;61.268;2024-03-23T13:53:28;5.45;;;2.63;;
80163;SDS011;70071;55.130;61.268;2024-03-23T13:55:54;4.43;;;1.90;;
80163;SDS011;70071;55.130;61.268;2024-03-23T13:58:20;4.57;;;2.22;;
80163;SDS011;70071;55.130;61.268;2024-03-23T14:00:51;8.05;;;2.42;;
80163;SDS011;70071;55.130;61.268;2024-03-23T14:03:18;6.45;;;2.50;;
80163;SDS011;70071;55.130;61.268;2024-03-23T14:05:46;3.88;;;2.30;;
80163;SDS011;70071;55.130;61.268;2024-03-23T14:10:42;4.97;;;2.33;;
80163;SDS011;70071;55.130;61.268;2024-03-23T14:13:32;5.82;;;2.50;;
80163;SDS011;70071;55.130;61.268;2024-03-23T14:15:59;5.38;;;2.47;;
80163;SDS011;70071;55.130;61.268;2024-03-23T14:20:58;6.72;;;2.53;;
80163;SDS011;70071;55.130;61.268;2024-03-23T14:23:30;6.63;;;2.63;;
80163;SDS011;70071;55.130;61.268;2024-03-23T14:26:00;5.05;;;3.13;;
80163;SDS011;70071;55.130;61.268;2024-03-23T14:30:54;5.53;;;2.53;;
80163;SDS011;70071;55.130;61.268;2024-03-23T14:33:22;4.78;;;2.72;;
80163;SDS011;70071;55.130;61.268;2024-03-23T14:35:53;6.65;;;3.53;;
80163;SDS011;70071;55.130;61.268;2024-03-23T14:38:20;6.32;;;3.25;;
80163;SDS011;70071;55.130;61.268;2024-03-23T14:40:47;4.78;;;2.50;;
80163;SDS011;70071;55.130;61.268;2024-03-23T14:43:49;5.68;;;2.50;;
80163;SDS011;70071;55.130;61.268;2024-03-23T14:46:21;4.90;;;2.60;;
80163;SDS011;70071;55.130;61.268;2024-03-23T14:48:53;5.05;;;2.28;;
80163;SDS011;70071;55.130;61.268;2024-03-23T14:51:26;5.72;;;2.40;;
80163;SDS011;70071;55.130;61.268;2024-03-23T14:53:54;4.50;;;2.33;;
80163;SDS011;70071;55.130;61.268;2024-03-23T14:56:20;4.65;;;2.55;;
80163;SDS011;70071;55.130;61.268;2024-03-23T14:58:47;5.50;;;3.38;;
80163;SDS011;70071;55.130;61.268;2024-03-23T15:01:21;4.55;;;2.88;;
80163;SDS011;70071;55.130;61.268;2024-03-23T15:03:47;4.35;;;2.20;;
80163;SDS011;70071;55.130;61.268;2024-03-23T15:06:13;5.03;;;2.20;;
80163;SDS011;70071;55.130;61.268;2024-03-23T15:08:50;3.63;;;2.33;;
80163;SDS011;70071;55.130;61.268;2024-03-23T15:11:23;4.68;;;2.20;;
80163;SDS011;70071;55.130;61.268;2024-03-23T15:13:50;4.43;;;2.15;;
80163;SDS011;70071;55.130;61.268;2024-03-23T15:16:21;3.78;;;2.08;;
80163;SDS011;70071;55.130;61.268;2024-03-23T15:18:47;4.40;;;2.05;;
80163;SDS011;70071;55.130;61.268;2024-03-23T15:21:17;5.20;;;2.22;;
80163;SDS011;70071;55.130;61.268;2024-03-23T15:23:48;3.38;;;1.98;;
80163;SDS011;70071;55.130;61.268;2024-03-23T15:26:15;2.50;;;1.10;;
80163;SDS011;70071;55.130;61.268;2024-03-23T15:28:47;4.38;;;1.60;;
80163;SDS011;70071;55.130;61.268;2024-03-23T15:31:23;2.30;;;1.45;;
80163;SDS011;70071;55.130;61.268;2024-03-23T15:33:54;4.00;;;1.42;;
80163;SDS011;70071;55.130;61.268;2024-03-23T15:36:20;4.47;;;1.48;;
80163;SDS011;70071;55.130;61.268;2024-03-23T15:38:45;3.85;;;1.88;;
80163;SDS011;70071;55.130;61.268;2024-03-23T15:41:14;3.20;;;1.50;;
80163;SDS011;70071;55.130;61.268;2024-03-23T15:43:40;4.20;;;2.00;;
80163;SDS011;70071;55.130;61.268;2024-03-23T15:48:37;3.70;;;1.80;;
80163;SDS011;70071;55.130;61.268;2024-03-23T15:51:03;4.05;;;2.03;;
80163;SDS011;70071;55.130;61.268;2024-03-23T15:53:33;3.95;;;1.90;;
80163;SDS011;70071;55.130;61.268;2024-03-23T15:56:02;4.20;;;2.28;;
80163;SDS011;70071;55.130;61.268;2024-03-23T15:58:30;9.05;;;1.80;;
80163;SDS011;70071;55.130;61.268;2024-03-23T16:00:57;2.40;;;1.70;;
80163;SDS011;70071;55.130;61.268;2024-03-23T16:03:24;2.03;;;1.27;;
80163;SDS011;70071;55.130;61.268;2024-03-23T16:05:56;2.40;;;1.40;;
80163;SDS011;70071;55.130;61.268;2024-03-23T16:08:29;2.60;;;1.42;;
80163;SDS011;70071;55.130;61.268;2024-03-23T16:11:00;2.90;;;1.45;;
80163;SDS011;70071;55.130;61.268;2024-03-23T16:13:30;3.05;;;1.50;;
80163;SDS011;70071;55.130;61.268;2024-03-23T16:16:00;3.50;;;1.50;;
80163;SDS011;70071;55.130;61.268;2024-03-23T16:18:34;3.25;;;1.42;;
80163;SDS011;70071;55.130;61.268;2024-03-23T16:21:03;2.80;;;1.40;;
80163;SDS011;70071;55.130;61.268;2024-03-23T16:23:34;3.38;;;1.50;;
80163;SDS011;70071;55.130;61.268;2024-03-23T16:26:06;3.08;;;1.65;;